sensor_id;sensor_type;location;lat;lon;timestamp;temperature;humidity
24338;DHT22;12457;50.832;4.346;2023-07-29T00:00:56;19.80;99.90
24338;DHT22;12457;50.832;4.346;2023-07-29T00:03:22;19.90;99.90
24338;DHT22;12457;50.832;4.346;2023-07-29T00:05:49;19.80;99.90
24338;DHT22;12457;50.832;4.346;2023-07-29T00:08:15;19.80;99.90
24338;DHT22;12457;50.832;4.346;2023-07-29T00:10:40;19.80;99.90
24338;DHT22;12457;50.832;4.346;2023-07-29T00:13:07;19.70;99.90
24338;DHT22;12457;50.832;4.346;2023-07-29T00:15:33;19.60;99.90
24338;DHT22;12457;50.832;4.346;2023-07-29T00:17:58;19.50;99.90
24338;DHT22;12457;50.832;4.346;2023-07-29T00:20:24;19.60;99.90
24338;DHT22;12457;50.832;4.346;2023-07-29T00:22:50;19.50;99.90
24338;DHT22;12457;50.832;4.346;2023-07-29T00:25:18;19.50;99.90
24338;DHT22;12457;50.832;4.346;2023-07-29T00:27:44;19.50;99.90
24338;DHT22;12457;50.832;4.346;2023-07-29T00:30:10;19.40;99.90
24338;DHT22;12457;50.832;4.346;2023-07-29T00:32:35;19.30;99.90
24338;DHT22;12457;50.832;4.346;2023-07-29T00:35:02;19.20;99.90
24338;DHT22;12457;50.832;4.346;2023-07-29T00:37:29;19.20;99.90
24338;DHT22;12457;50.832;4.346;2023-07-29T00:39:55;19.20;99.90
24338;DHT22;12457;50.832;4.346;2023-07-29T00:42:21;19.20;99.90
24338;DHT22;12457;50.832;4.346;2023-07-29T00:44:47;19.10;99.90
24338;DHT22;12457;50.832;4.346;2023-07-29T00:47:15;19.00;99.90
24338;DHT22;12457;50.832;4.346;2023-07-29T00:49:41;19.00;99.90
24338;DHT22;12457;50.832;4.346;2023-07-29T00:52:07;19.00;99.90
24338;DHT22;12457;50.832;4.346;2023-07-29T00:54:32;19.10;99.90
24338;DHT22;12457;50.832;4.346;2023-07-29T00:56:58;19.10;99.90
24338;DHT22;12457;50.832;4.346;2023-07-29T00:59:24;19.00;99.90
24338;DHT22;12457;50.832;4.346;2023-07-29T01:01:51;19.00;99.90
24338;DHT22;12457;50.832;4.346;2023-07-29T01:04:16;18.90;99.90
24338;DHT22;12457;50.832;4.346;2023-07-29T01:06:50;18.80;99.90
24338;DHT22;12457;50.832;4.346;2023-07-29T01:17:55;18.70;99.90
24338;DHT22;12457;50.832;4.346;2023-07-29T01:20:21;18.60;99.90
24338;DHT22;12457;50.832;4.346;2023-07-29T01:22:49;18.60;99.90
24338;DHT22;12457;50.832;4.346;2023-07-29T01:25:15;18.70;99.90
24338;DHT22;12457;50.832;4.346;2023-07-29T01:27:44;18.70;99.90
24338;DHT22;12457;50.832;4.346;2023-07-29T01:30:10;18.70;99.90
24338;DHT22;12457;50.832;4.346;2023-07-29T01:35:33;18.60;99.90
24338;DHT22;12457;50.832;4.346;2023-07-29T01:38:13;18.60;99.90
24338;DHT22;12457;50.832;4.346;2023-07-29T01:40:40;18.50;99.90
24338;DHT22;12457;50.832;4.346;2023-07-29T01:43:07;18.50;99.90
24338;DHT22;12457;50.832;4.346;2023-07-29T01:45:33;18.40;99.90
24338;DHT22;12457;50.832;4.346;2023-07-29T01:48:07;18.50;99.90
24338;DHT22;12457;50.832;4.346;2023-07-29T01:50:33;18.40;99.90
24338;DHT22;12457;50.832;4.346;2023-07-29T01:52:59;18.50;99.90
24338;DHT22;12457;50.832;4.346;2023-07-29T01:55:25;18.50;99.90
24338;DHT22;12457;50.832;4.346;2023-07-29T01:57:51;18.40;99.90
24338;DHT22;12457;50.832;4.346;2023-07-29T02:00:18;18.40;99.90
24338;DHT22;12457;50.832;4.346;2023-07-29T02:02:44;18.40;99.90
24338;DHT22;12457;50.832;4.346;2023-07-29T02:05:10;18.30;99.90
24338;DHT22;12457;50.832;4.346;2023-07-29T02:07:35;18.30;99.90
24338;DHT22;12457;50.832;4.346;2023-07-29T02:10:01;18.30;99.90
24338;DHT22;12457;50.832;4.346;2023-07-29T02:12:27;18.30;99.90
24338;DHT22;12457;50.832;4.346;2023-07-29T02:14:52;18.20;99.90
24338;DHT22;12457;50.832;4.346;2023-07-29T02:17:18;18.30;99.90
24338;DHT22;12457;50.832;4.346;2023-07-29T02:19:44;18.30;99.90
24338;DHT22;12457;50.832;4.346;2023-07-29T02:22:12;18.30;99.90
24338;DHT22;12457;50.832;4.346;2023-07-29T02:24:38;18.30;99.90
24338;DHT22;12457;50.832;4.346;2023-07-29T02:27:04;18.30;99.90
24338;DHT22;12457;50.832;4.346;2023-07-29T02:29:30;18.30;99.90
24338;DHT22;12457;50.832;4.346;2023-07-29T02:31:56;18.30;99.90
24338;DHT22;12457;50.832;4.346;2023-07-29T02:34:21;18.20;99.90
24338;DHT22;12457;50.832;4.346;2023-07-29T02:36:47;18.10;99.90
24338;DHT22;12457;50.832;4.346;2023-07-29T02:39:14;18.10;99.90
24338;DHT22;12457;50.832;4.346;2023-07-29T02:41:40;18.20;99.90
24338;DHT22;12457;50.832;4.346;2023-07-29T02:44:06;18.20;99.90
24338;DHT22;12457;50.832;4.346;2023-07-29T02:46:32;18.30;99.90
24338;DHT22;12457;50.832;4.346;2023-07-29T02:48:57;18.30;99.90
24338;DHT22;12457;50.832;4.346;2023-07-29T02:51:24;18.30;99.90
24338;DHT22;12457;50.832;4.346;2023-07-29T02:54:05;18.30;99.90
24338;DHT22;12457;50.832;4.346;2023-07-29T02:56:31;18.30;99.90
24338;DHT22;12457;50.832;4.346;2023-07-29T02:58:57;18.30;99.90
24338;DHT22;12457;50.832;4.346;2023-07-29T03:01:23;18.30;99.90
24338;DHT22;12457;50.832;4.346;2023-07-29T03:03:50;18.30;99.90
24338;DHT22;12457;50.832;4.346;2023-07-29T03:06:16;18.30;99.90
24338;DHT22;12457;50.832;4.346;2023-07-29T03:08:42;18.30;99.90
24338;DHT22;12457;50.832;4.346;2023-07-29T03:11:12;18.30;99.90
24338;DHT22;12457;50.832;4.346;2023-07-29T03:13:37;18.30;99.90
24338;DHT22;12457;50.832;4.346;2023-07-29T03:16:13;18.20;99.90
24338;DHT22;12457;50.832;4.346;2023-07-29T03:18:40;18.20;99.90
24338;DHT22;12457;50.832;4.346;2023-07-29T03:21:06;18.20;99.90
24338;DHT22;12457;50.832;4.346;2023-07-29T03:23:34;18.10;99.90
24338;DHT22;12457;50.832;4.346;2023-07-29T03:26:01;18.10;99.90
24338;DHT22;12457;50.832;4.346;2023-07-29T03:28:32;18.10;99.90
24338;DHT22;12457;50.832;4.346;2023-07-29T03:30:58;18.00;99.90
24338;DHT22;12457;50.832;4.346;2023-07-29T03:33:25;18.00;99.90
24338;DHT22;12457;50.832;4.346;2023-07-29T03:35:52;18.10;99.90
24338;DHT22;12457;50.832;4.346;2023-07-29T03:38:18;18.10;99.90
24338;DHT22;12457;50.832;4.346;2023-07-29T03:40:43;18.00;99.90
24338;DHT22;12457;50.832;4.346;2023-07-29T03:43:09;18.10;99.90
24338;DHT22;12457;50.832;4.346;2023-07-29T03:45:35;18.00;99.90
24338;DHT22;12457;50.832;4.346;2023-07-29T03:48:01;18.10;99.90
24338;DHT22;12457;50.832;4.346;2023-07-29T03:50:28;17.90;99.90
24338;DHT22;12457;50.832;4.346;2023-07-29T03:52:55;17.90;99.90
24338;DHT22;12457;50.832;4.346;2023-07-29T03:55:20;17.90;99.90
24338;DHT22;12457;50.832;4.346;2023-07-29T03:57:46;17.90;99.90
24338;DHT22;12457;50.832;4.346;2023-07-29T04:00:12;17.90;99.90
24338;DHT22;12457;50.832;4.346;2023-07-29T04:02:38;18.00;99.90
24338;DHT22;12457;50.832;4.346;2023-07-29T04:05:05;18.00;99.90
24338;DHT22;12457;50.832;4.346;2023-07-29T04:07:34;17.90;99.90
24338;DHT22;12457;50.832;4.346;2023-07-29T04:10:00;17.80;99.90
24338;DHT22;12457;50.832;4.346;2023-07-29T04:12:26;17.90;99.90
24338;DHT22;12457;50.832;4.346;2023-07-29T04:14:52;17.90;99.90
24338;DHT22;12457;50.832;4.346;2023-07-29T04:17:18;17.90;99.90
24338;DHT22;12457;50.832;4.346;2023-07-29T04:19:44;18.00;99.90
24338;DHT22;12457;50.832;4.346;2023-07-29T04:22:09;18.00;99.90
24338;DHT22;12457;50.832;4.346;2023-07-29T04:24:37;18.00;99.90
24338;DHT22;12457;50.832;4.346;2023-07-29T04:27:03;18.10;99.90
24338;DHT22;12457;50.832;4.346;2023-07-29T04:29:29;18.10;99.90
24338;DHT22;12457;50.832;4.346;2023-07-29T04:31:55;18.10;99.90
24338;DHT22;12457;50.832;4.346;2023-07-29T04:34:21;18.00;99.90
24338;DHT22;12457;50.832;4.346;2023-07-29T04:36:47;18.10;99.90
24338;DHT22;12457;50.832;4.346;2023-07-29T04:39:13;18.10;99.90
24338;DHT22;12457;50.832;4.346;2023-07-29T04:41:38;18.10;99.90
24338;DHT22;12457;50.832;4.346;2023-07-29T04:44:04;18.10;99.90
24338;DHT22;12457;50.832;4.346;2023-07-29T04:46:30;18.10;99.90
24338;DHT22;12457;50.832;4.346;2023-07-29T04:48:55;18.10;99.90
24338;DHT22;12457;50.832;4.346;2023-07-29T04:51:21;18.10;99.90
24338;DHT22;12457;50.832;4.346;2023-07-29T04:53:47;18.10;99.90
24338;DHT22;12457;50.832;4.346;2023-07-29T04:56:13;18.10;99.90
24338;DHT22;12457;50.832;4.346;2023-07-29T04:58:39;18.10;99.90
24338;DHT22;12457;50.832;4.346;2023-07-29T05:01:05;18.20;99.90
24338;DHT22;12457;50.832;4.346;2023-07-29T05:03:31;18.20;99.90
24338;DHT22;12457;50.832;4.346;2023-07-29T05:05:58;18.20;99.90
24338;DHT22;12457;50.832;4.346;2023-07-29T05:08:27;18.20;99.90
24338;DHT22;12457;50.832;4.346;2023-07-29T05:10:53;18.20;99.90
24338;DHT22;12457;50.832;4.346;2023-07-29T05:13:20;18.30;99.90
24338;DHT22;12457;50.832;4.346;2023-07-29T05:15:47;18.30;99.90
24338;DHT22;12457;50.832;4.346;2023-07-29T05:18:14;18.50;99.90
24338;DHT22;12457;50.832;4.346;2023-07-29T05:20:40;18.70;99.90
24338;DHT22;12457;50.832;4.346;2023-07-29T05:23:06;19.10;99.90
24338;DHT22;12457;50.832;4.346;2023-07-29T05:25:32;19.40;99.90
24338;DHT22;12457;50.832;4.346;2023-07-29T05:28:03;19.70;99.90
24338;DHT22;12457;50.832;4.346;2023-07-29T05:30:29;20.30;99.90
24338;DHT22;12457;50.832;4.346;2023-07-29T05:33:06;20.30;99.90
24338;DHT22;12457;50.832;4.346;2023-07-29T05:35:33;20.20;99.90
24338;DHT22;12457;50.832;4.346;2023-07-29T05:37:59;19.90;99.90
24338;DHT22;12457;50.832;4.346;2023-07-29T05:40:25;19.90;99.90
24338;DHT22;12457;50.832;4.346;2023-07-29T05:42:51;20.10;99.90
24338;DHT22;12457;50.832;4.346;2023-07-29T05:45:16;20.60;99.90
24338;DHT22;12457;50.832;4.346;2023-07-29T05:47:42;21.00;99.90
24338;DHT22;12457;50.832;4.346;2023-07-29T05:50:08;21.50;99.90
24338;DHT22;12457;50.832;4.346;2023-07-29T05:52:34;21.90;99.90
24338;DHT22;12457;50.832;4.346;2023-07-29T05:55:00;21.90;99.90
24338;DHT22;12457;50.832;4.346;2023-07-29T05:57:26;22.00;99.90
24338;DHT22;12457;50.832;4.346;2023-07-29T05:59:52;22.10;99.90
24338;DHT22;12457;50.832;4.346;2023-07-29T06:02:18;21.90;99.90
24338;DHT22;12457;50.832;4.346;2023-07-29T06:04:43;21.80;99.90
24338;DHT22;12457;50.832;4.346;2023-07-29T06:07:09;21.60;99.90
24338;DHT22;12457;50.832;4.346;2023-07-29T06:09:35;21.50;99.90
24338;DHT22;12457;50.832;4.346;2023-07-29T06:12:00;21.80;99.90
24338;DHT22;12457;50.832;4.346;2023-07-29T06:14:26;22.00;99.90
24338;DHT22;12457;50.832;4.346;2023-07-29T06:16:52;22.30;99.90
24338;DHT22;12457;50.832;4.346;2023-07-29T06:19:19;22.50;99.90
24338;DHT22;12457;50.832;4.346;2023-07-29T06:21:45;22.50;99.90
24338;DHT22;12457;50.832;4.346;2023-07-29T06:24:11;22.60;99.90
24338;DHT22;12457;50.832;4.346;2023-07-29T06:26:36;22.80;99.90
24338;DHT22;12457;50.832;4.346;2023-07-29T06:29:02;23.00;99.90
24338;DHT22;12457;50.832;4.346;2023-07-29T06:31:28;23.10;99.90
24338;DHT22;12457;50.832;4.346;2023-07-29T06:33:55;23.10;99.90
24338;DHT22;12457;50.832;4.346;2023-07-29T06:36:20;23.10;99.90
24338;DHT22;12457;50.832;4.346;2023-07-29T06:38:46;23.40;99.90
24338;DHT22;12457;50.832;4.346;2023-07-29T06:41:12;23.10;99.90
24338;DHT22;12457;50.832;4.346;2023-07-29T06:43:37;23.00;99.90
24338;DHT22;12457;50.832;4.346;2023-07-29T06:46:03;23.10;99.90
24338;DHT22;12457;50.832;4.346;2023-07-29T06:48:29;22.90;99.90
24338;DHT22;12457;50.832;4.346;2023-07-29T06:50:54;23.00;99.90
24338;DHT22;12457;50.832;4.346;2023-07-29T06:53:21;23.10;99.90
24338;DHT22;12457;50.832;4.346;2023-07-29T06:55:51;22.90;99.90
24338;DHT22;12457;50.832;4.346;2023-07-29T06:58:17;22.80;99.90
24338;DHT22;12457;50.832;4.346;2023-07-29T07:00:43;22.50;99.90
24338;DHT22;12457;50.832;4.346;2023-07-29T07:03:08;22.30;99.90
24338;DHT22;12457;50.832;4.346;2023-07-29T07:05:34;22.20;99.90
24338;DHT22;12457;50.832;4.346;2023-07-29T07:08:00;22.10;99.90
24338;DHT22;12457;50.832;4.346;2023-07-29T07:10:26;22.20;99.90
24338;DHT22;12457;50.832;4.346;2023-07-29T07:12:51;22.00;99.90
24338;DHT22;12457;50.832;4.346;2023-07-29T07:15:17;22.00;99.90
24338;DHT22;12457;50.832;4.346;2023-07-29T07:17:43;22.10;99.90
24338;DHT22;12457;50.832;4.346;2023-07-29T07:20:08;22.10;99.90
24338;DHT22;12457;50.832;4.346;2023-07-29T07:22:34;21.90;99.90
24338;DHT22;12457;50.832;4.346;2023-07-29T07:25:00;21.90;99.90
24338;DHT22;12457;50.832;4.346;2023-07-29T07:27:25;22.00;99.90
24338;DHT22;12457;50.832;4.346;2023-07-29T07:29:51;22.00;99.90
24338;DHT22;12457;50.832;4.346;2023-07-29T07:32:17;21.80;99.90
24338;DHT22;12457;50.832;4.346;2023-07-29T07:34:43;21.70;99.90
24338;DHT22;12457;50.832;4.346;2023-07-29T07:37:08;21.60;99.90
24338;DHT22;12457;50.832;4.346;2023-07-29T07:39:34;21.70;99.90
24338;DHT22;12457;50.832;4.346;2023-07-29T07:42:00;21.70;99.90
24338;DHT22;12457;50.832;4.346;2023-07-29T07:44:25;21.80;99.90
24338;DHT22;12457;50.832;4.346;2023-07-29T07:46:52;22.00;99.90
24338;DHT22;12457;50.832;4.346;2023-07-29T07:49:19;22.20;99.90
24338;DHT22;12457;50.832;4.346;2023-07-29T07:51:44;22.40;99.90
24338;DHT22;12457;50.832;4.346;2023-07-29T07:54:10;22.60;99.90
24338;DHT22;12457;50.832;4.346;2023-07-29T07:56:36;22.60;99.90
24338;DHT22;12457;50.832;4.346;2023-07-29T07:59:01;22.80;99.90
24338;DHT22;12457;50.832;4.346;2023-07-29T08:01:27;23.10;99.90
24338;DHT22;12457;50.832;4.346;2023-07-29T08:03:53;23.40;99.90
24338;DHT22;12457;50.832;4.346;2023-07-29T08:06:18;23.50;99.90
24338;DHT22;12457;50.832;4.346;2023-07-29T08:08:44;23.70;99.90
24338;DHT22;12457;50.832;4.346;2023-07-29T08:11:10;24.00;99.90
24338;DHT22;12457;50.832;4.346;2023-07-29T08:13:36;24.40;99.90
24338;DHT22;12457;50.832;4.346;2023-07-29T08:16:01;24.60;99.90
24338;DHT22;12457;50.832;4.346;2023-07-29T08:18:27;24.40;99.90
24338;DHT22;12457;50.832;4.346;2023-07-29T08:20:53;24.50;99.90
24338;DHT22;12457;50.832;4.346;2023-07-29T08:23:20;24.60;99.90
24338;DHT22;12457;50.832;4.346;2023-07-29T08:25:52;24.60;99.90
24338;DHT22;12457;50.832;4.346;2023-07-29T08:28:17;24.50;99.90
24338;DHT22;12457;50.832;4.346;2023-07-29T08:30:43;24.50;99.90
24338;DHT22;12457;50.832;4.346;2023-07-29T08:33:09;24.70;99.90
24338;DHT22;12457;50.832;4.346;2023-07-29T08:35:34;24.90;99.90
24338;DHT22;12457;50.832;4.346;2023-07-29T08:38:01;24.90;99.90
24338;DHT22;12457;50.832;4.346;2023-07-29T08:40:29;24.90;99.90
24338;DHT22;12457;50.832;4.346;2023-07-29T08:42:57;24.90;99.90
24338;DHT22;12457;50.832;4.346;2023-07-29T08:45:24;25.10;99.90
24338;DHT22;12457;50.832;4.346;2023-07-29T08:47:53;25.00;99.90
24338;DHT22;12457;50.832;4.346;2023-07-29T08:50:21;25.00;99.90
24338;DHT22;12457;50.832;4.346;2023-07-29T08:52:48;24.90;99.90
24338;DHT22;12457;50.832;4.346;2023-07-29T08:55:15;25.00;99.90
24338;DHT22;12457;50.832;4.346;2023-07-29T08:57:40;25.10;99.90
24338;DHT22;12457;50.832;4.346;2023-07-29T09:00:07;25.30;99.90
24338;DHT22;12457;50.832;4.346;2023-07-29T09:02:33;25.40;99.90
24338;DHT22;12457;50.832;4.346;2023-07-29T09:04:58;25.30;99.90
24338;DHT22;12457;50.832;4.346;2023-07-29T09:07:24;25.30;99.90
24338;DHT22;12457;50.832;4.346;2023-07-29T09:09:51;25.50;99.90
24338;DHT22;12457;50.832;4.346;2023-07-29T09:12:17;25.80;99.90
24338;DHT22;12457;50.832;4.346;2023-07-29T09:14:43;26.10;99.90
24338;DHT22;12457;50.832;4.346;2023-07-29T09:17:08;26.20;99.90
24338;DHT22;12457;50.832;4.346;2023-07-29T09:19:35;25.90;99.90
24338;DHT22;12457;50.832;4.346;2023-07-29T09:22:02;25.90;99.90
24338;DHT22;12457;50.832;4.346;2023-07-29T09:24:28;26.00;99.90
24338;DHT22;12457;50.832;4.346;2023-07-29T09:26:57;25.90;99.90
24338;DHT22;12457;50.832;4.346;2023-07-29T09:29:23;25.90;99.90
24338;DHT22;12457;50.832;4.346;2023-07-29T09:31:49;25.70;99.90
24338;DHT22;12457;50.832;4.346;2023-07-29T09:34:16;25.90;99.90
24338;DHT22;12457;50.832;4.346;2023-07-29T09:36:43;26.30;99.90
24338;DHT22;12457;50.832;4.346;2023-07-29T09:39:12;26.30;99.90
24338;DHT22;12457;50.832;4.346;2023-07-29T09:41:41;26.00;99.90
24338;DHT22;12457;50.832;4.346;2023-07-29T09:44:07;25.60;99.90
24338;DHT22;12457;50.832;4.346;2023-07-29T09:46:37;25.50;99.90
24338;DHT22;12457;50.832;4.346;2023-07-29T09:49:05;25.40;99.90
24338;DHT22;12457;50.832;4.346;2023-07-29T09:51:31;25.30;99.90
24338;DHT22;12457;50.832;4.346;2023-07-29T09:53:57;25.00;99.90
24338;DHT22;12457;50.832;4.346;2023-07-29T09:56:27;24.90;99.90
24338;DHT22;12457;50.832;4.346;2023-07-29T09:58:53;25.30;99.90
24338;DHT22;12457;50.832;4.346;2023-07-29T10:01:20;25.70;99.90
24338;DHT22;12457;50.832;4.346;2023-07-29T10:03:47;26.00;99.90
24338;DHT22;12457;50.832;4.346;2023-07-29T10:06:14;26.40;99.90
24338;DHT22;12457;50.832;4.346;2023-07-29T10:08:42;26.70;99.90
24338;DHT22;12457;50.832;4.346;2023-07-29T10:11:09;26.80;99.90
24338;DHT22;12457;50.832;4.346;2023-07-29T10:13:36;26.90;99.90
24338;DHT22;12457;50.832;4.346;2023-07-29T10:16:03;27.20;99.90
24338;DHT22;12457;50.832;4.346;2023-07-29T10:18:30;27.30;99.90
24338;DHT22;12457;50.832;4.346;2023-07-29T10:20:57;27.00;99.90
24338;DHT22;12457;50.832;4.346;2023-07-29T10:23:26;27.00;99.90
24338;DHT22;12457;50.832;4.346;2023-07-29T10:26:05;26.70;99.90
24338;DHT22;12457;50.832;4.346;2023-07-29T10:28:32;26.10;99.90
24338;DHT22;12457;50.832;4.346;2023-07-29T10:31:00;25.90;99.90
24338;DHT22;12457;50.832;4.346;2023-07-29T10:33:27;25.40;99.90
24338;DHT22;12457;50.832;4.346;2023-07-29T10:35:53;24.90;99.90
24338;DHT22;12457;50.832;4.346;2023-07-29T10:38:24;24.10;99.90
24338;DHT22;12457;50.832;4.346;2023-07-29T10:40:52;23.60;99.90
24338;DHT22;12457;50.832;4.346;2023-07-29T10:45:51;22.80;99.90
24338;DHT22;12457;50.832;4.346;2023-07-29T10:51:29;22.50;99.90
24338;DHT22;12457;50.832;4.346;2023-07-29T10:54:17;22.40;99.90
24338;DHT22;12457;50.832;4.346;2023-07-29T10:56:46;22.40;99.90
24338;DHT22;12457;50.832;4.346;2023-07-29T11:01:42;22.20;99.90
24338;DHT22;12457;50.832;4.346;2023-07-29T11:09:42;21.40;99.90
24338;DHT22;12457;50.832;4.346;2023-07-29T11:15:25;21.20;99.90
24338;DHT22;12457;50.832;4.346;2023-07-29T11:17:58;21.20;99.90
24338;DHT22;12457;50.832;4.346;2023-07-29T11:20:29;21.30;99.90
24338;DHT22;12457;50.832;4.346;2023-07-29T11:22:57;21.20;99.90
24338;DHT22;12457;50.832;4.346;2023-07-29T11:25:24;21.20;99.90
24338;DHT22;12457;50.832;4.346;2023-07-29T11:27:54;21.30;99.90
24338;DHT22;12457;50.832;4.346;2023-07-29T11:30:21;21.70;99.90
24338;DHT22;12457;50.832;4.346;2023-07-29T11:32:48;21.90;99.90
24338;DHT22;12457;50.832;4.346;2023-07-29T11:35:16;22.30;99.90
24338;DHT22;12457;50.832;4.346;2023-07-29T11:37:45;22.70;99.90
24338;DHT22;12457;50.832;4.346;2023-07-29T11:40:14;23.00;99.90
24338;DHT22;12457;50.832;4.346;2023-07-29T11:42:41;23.50;99.90
24338;DHT22;12457;50.832;4.346;2023-07-29T11:45:07;23.70;99.90
24338;DHT22;12457;50.832;4.346;2023-07-29T11:47:33;23.80;99.90
24338;DHT22;12457;50.832;4.346;2023-07-29T11:50:07;24.10;99.90
24338;DHT22;12457;50.832;4.346;2023-07-29T11:52:48;24.20;99.90
24338;DHT22;12457;50.832;4.346;2023-07-29T11:55:15;24.10;99.90
24338;DHT22;12457;50.832;4.346;2023-07-29T11:57:42;23.90;99.90
24338;DHT22;12457;50.832;4.346;2023-07-29T12:00:09;23.90;99.90
24338;DHT22;12457;50.832;4.346;2023-07-29T12:02:38;23.80;99.90
24338;DHT22;12457;50.832;4.346;2023-07-29T12:05:05;23.60;99.90
24338;DHT22;12457;50.832;4.346;2023-07-29T12:07:32;23.10;99.90
24338;DHT22;12457;50.832;4.346;2023-07-29T12:10:03;22.50;99.90
24338;DHT22;12457;50.832;4.346;2023-07-29T12:12:29;22.10;99.90
24338;DHT22;12457;50.832;4.346;2023-07-29T12:14:55;21.70;99.90
24338;DHT22;12457;50.832;4.346;2023-07-29T12:17:21;21.50;99.90
24338;DHT22;12457;50.832;4.346;2023-07-29T12:19:46;21.40;99.90
24338;DHT22;12457;50.832;4.346;2023-07-29T12:22:24;21.20;99.90
24338;DHT22;12457;50.832;4.346;2023-07-29T12:24:51;21.20;99.90
24338;DHT22;12457;50.832;4.346;2023-07-29T12:27:18;21.30;99.90
24338;DHT22;12457;50.832;4.346;2023-07-29T12:29:47;21.40;99.90
24338;DHT22;12457;50.832;4.346;2023-07-29T12:32:14;21.30;99.90
24338;DHT22;12457;50.832;4.346;2023-07-29T12:34:40;21.40;99.90
24338;DHT22;12457;50.832;4.346;2023-07-29T12:37:06;21.60;99.90
24338;DHT22;12457;50.832;4.346;2023-07-29T12:39:34;21.80;99.90
24338;DHT22;12457;50.832;4.346;2023-07-29T12:42:00;22.00;99.90
24338;DHT22;12457;50.832;4.346;2023-07-29T12:44:38;22.10;99.90
24338;DHT22;12457;50.832;4.346;2023-07-29T12:47:06;22.10;99.90
24338;DHT22;12457;50.832;4.346;2023-07-29T12:49:32;22.20;99.90
24338;DHT22;12457;50.832;4.346;2023-07-29T12:51:58;22.40;99.90
24338;DHT22;12457;50.832;4.346;2023-07-29T12:54:24;22.50;99.90
24338;DHT22;12457;50.832;4.346;2023-07-29T12:56:50;22.80;99.90
24338;DHT22;12457;50.832;4.346;2023-07-29T12:59:16;23.30;99.90
24338;DHT22;12457;50.832;4.346;2023-07-29T13:01:42;23.60;99.90
24338;DHT22;12457;50.832;4.346;2023-07-29T13:04:10;24.10;99.90
24338;DHT22;12457;50.832;4.346;2023-07-29T13:06:37;24.40;99.90
24338;DHT22;12457;50.832;4.346;2023-07-29T13:09:02;24.50;99.90
24338;DHT22;12457;50.832;4.346;2023-07-29T13:11:28;24.40;99.90
24338;DHT22;12457;50.832;4.346;2023-07-29T13:13:54;24.30;99.90
24338;DHT22;12457;50.832;4.346;2023-07-29T13:16:20;24.30;99.90
24338;DHT22;12457;50.832;4.346;2023-07-29T13:18:46;24.40;99.90
24338;DHT22;12457;50.832;4.346;2023-07-29T13:21:11;24.50;99.90
24338;DHT22;12457;50.832;4.346;2023-07-29T13:23:37;24.70;99.90
24338;DHT22;12457;50.832;4.346;2023-07-29T13:26:03;24.30;99.90
24338;DHT22;12457;50.832;4.346;2023-07-29T13:28:34;24.10;99.90
24338;DHT22;12457;50.832;4.346;2023-07-29T13:31:01;24.10;99.90
24338;DHT22;12457;50.832;4.346;2023-07-29T13:33:26;24.00;99.90
24338;DHT22;12457;50.832;4.346;2023-07-29T13:35:52;24.20;99.90
24338;DHT22;12457;50.832;4.346;2023-07-29T13:38:19;24.20;99.90
24338;DHT22;12457;50.832;4.346;2023-07-29T13:40:45;24.30;99.90
24338;DHT22;12457;50.832;4.346;2023-07-29T13:43:11;24.20;99.90
24338;DHT22;12457;50.832;4.346;2023-07-29T13:45:36;24.00;99.90
24338;DHT22;12457;50.832;4.346;2023-07-29T13:48:03;23.80;99.90
24338;DHT22;12457;50.832;4.346;2023-07-29T13:50:28;23.80;99.90
24338;DHT22;12457;50.832;4.346;2023-07-29T13:52:54;23.90;99.90
24338;DHT22;12457;50.832;4.346;2023-07-29T13:55:20;23.90;99.90
24338;DHT22;12457;50.832;4.346;2023-07-29T13:57:45;23.90;99.90
24338;DHT22;12457;50.832;4.346;2023-07-29T14:00:11;23.70;99.90
24338;DHT22;12457;50.832;4.346;2023-07-29T14:02:38;23.50;99.90
24338;DHT22;12457;50.832;4.346;2023-07-29T14:05:04;23.30;99.90
24338;DHT22;12457;50.832;4.346;2023-07-29T14:07:32;23.60;99.90
24338;DHT22;12457;50.832;4.346;2023-07-29T14:09:58;23.80;99.90
24338;DHT22;12457;50.832;4.346;2023-07-29T14:12:23;23.90;99.90
24338;DHT22;12457;50.832;4.346;2023-07-29T14:14:50;24.00;99.90
24338;DHT22;12457;50.832;4.346;2023-07-29T14:17:15;24.00;99.90
24338;DHT22;12457;50.832;4.346;2023-07-29T14:19:41;24.00;99.90
24338;DHT22;12457;50.832;4.346;2023-07-29T14:22:07;24.20;99.90
24338;DHT22;12457;50.832;4.346;2023-07-29T14:24:32;24.30;99.90
24338;DHT22;12457;50.832;4.346;2023-07-29T14:26:58;24.20;99.90
24338;DHT22;12457;50.832;4.346;2023-07-29T14:29:24;24.20;99.90
24338;DHT22;12457;50.832;4.346;2023-07-29T14:31:49;24.20;99.90
24338;DHT22;12457;50.832;4.346;2023-07-29T14:34:15;24.20;99.90
24338;DHT22;12457;50.832;4.346;2023-07-29T14:36:43;24.40;99.90
24338;DHT22;12457;50.832;4.346;2023-07-29T14:39:09;24.50;99.90
24338;DHT22;12457;50.832;4.346;2023-07-29T14:41:34;24.50;99.90
24338;DHT22;12457;50.832;4.346;2023-07-29T14:44:00;24.50;99.90
24338;DHT22;12457;50.832;4.346;2023-07-29T14:46:26;24.50;99.90
24338;DHT22;12457;50.832;4.346;2023-07-29T14:48:51;24.50;99.90
24338;DHT22;12457;50.832;4.346;2023-07-29T14:51:17;24.40;99.90
24338;DHT22;12457;50.832;4.346;2023-07-29T14:53:43;24.40;99.90
24338;DHT22;12457;50.832;4.346;2023-07-29T14:56:09;24.50;99.90
24338;DHT22;12457;50.832;4.346;2023-07-29T14:58:34;24.50;99.90
24338;DHT22;12457;50.832;4.346;2023-07-29T15:01:00;24.60;99.90
24338;DHT22;12457;50.832;4.346;2023-07-29T15:03:26;24.60;99.90
24338;DHT22;12457;50.832;4.346;2023-07-29T15:05:52;24.60;99.90
24338;DHT22;12457;50.832;4.346;2023-07-29T15:08:17;24.60;99.90
24338;DHT22;12457;50.832;4.346;2023-07-29T15:10:46;24.70;99.90
24338;DHT22;12457;50.832;4.346;2023-07-29T15:13:12;24.70;99.90
24338;DHT22;12457;50.832;4.346;2023-07-29T15:15:42;24.80;99.90
24338;DHT22;12457;50.832;4.346;2023-07-29T15:18:08;25.10;99.90
24338;DHT22;12457;50.832;4.346;2023-07-29T15:20:34;25.00;99.90
24338;DHT22;12457;50.832;4.346;2023-07-29T15:22:59;25.20;99.90
24338;DHT22;12457;50.832;4.346;2023-07-29T15:25:25;25.30;99.90
24338;DHT22;12457;50.832;4.346;2023-07-29T15:27:51;25.30;99.90
24338;DHT22;12457;50.832;4.346;2023-07-29T15:30:16;25.20;99.90
24338;DHT22;12457;50.832;4.346;2023-07-29T15:32:42;25.00;99.90
24338;DHT22;12457;50.832;4.346;2023-07-29T15:35:08;24.80;99.90
24338;DHT22;12457;50.832;4.346;2023-07-29T15:37:34;24.60;99.90
24338;DHT22;12457;50.832;4.346;2023-07-29T15:40:00;24.30;99.90
24338;DHT22;12457;50.832;4.346;2023-07-29T15:42:25;24.00;99.90
24338;DHT22;12457;50.832;4.346;2023-07-29T15:44:51;23.80;99.90
24338;DHT22;12457;50.832;4.346;2023-07-29T15:47:17;23.70;99.90
24338;DHT22;12457;50.832;4.346;2023-07-29T15:49:45;23.90;99.90
24338;DHT22;12457;50.832;4.346;2023-07-29T15:52:11;24.20;99.90
24338;DHT22;12457;50.832;4.346;2023-07-29T15:54:39;24.20;99.90